sensor_id;sensor_type;location;lat;lon;timestamp;P1;durP1;ratioP1;P2;durP2;ratioP2
30647;SDS011;17683;53.360;9.736;2023-10-09T00:00:53;5.93;;;1.98;;
30647;SDS011;17683;53.360;9.736;2023-10-09T00:03:26;5.40;;;1.95;;
30647;SDS011;17683;53.360;9.736;2023-10-09T00:05:53;7.63;;;1.95;;
30647;SDS011;17683;53.360;9.736;2023-10-09T00:08:19;5.20;;;1.60;;
30647;SDS011;17683;53.360;9.736;2023-10-09T00:11:11;8.50;;;1.70;;
30647;SDS011;17683;53.360;9.736;2023-10-09T00:13:41;9.77;;;2.10;;
30647;SDS011;17683;53.360;9.736;2023-10-09T00:16:37;5.32;;;2.28;;
30647;SDS011;17683;53.360;9.736;2023-10-09T00:19:12;6.22;;;2.00;;
30647;SDS011;17683;53.360;9.736;2023-10-09T00:24:23;3.08;;;1.67;;
30647;SDS011;17683;53.360;9.736;2023-10-09T00:26:50;4.63;;;1.92;;
30647;SDS011;17683;53.360;9.736;2023-10-09T00:29:17;5.30;;;1.80;;
30647;SDS011;17683;53.360;9.736;2023-10-09T00:31:54;4.60;;;2.13;;
30647;SDS011;17683;53.360;9.736;2023-10-09T00:34:38;7.32;;;2.28;;
30647;SDS011;17683;53.360;9.736;2023-10-09T00:37:07;4.22;;;1.88;;
30647;SDS011;17683;53.360;9.736;2023-10-09T00:39:44;7.68;;;1.75;;
30647;SDS011;17683;53.360;9.736;2023-10-09T00:42:13;3.42;;;1.83;;
30647;SDS011;17683;53.360;9.736;2023-10-09T00:44:47;4.40;;;1.83;;
30647;SDS011;17683;53.360;9.736;2023-10-09T00:47:14;4.78;;;2.05;;
30647;SDS011;17683;53.360;9.736;2023-10-09T00:50:03;3.40;;;1.85;;
30647;SDS011;17683;53.360;9.736;2023-10-09T00:52:51;6.35;;;1.67;;
30647;SDS011;17683;53.360;9.736;2023-10-09T00:55:37;2.50;;;1.60;;
30647;SDS011;17683;53.360;9.736;2023-10-09T00:58:20;3.03;;;1.80;;
30647;SDS011;17683;53.360;9.736;2023-10-09T01:00:55;7.63;;;2.08;;
30647;SDS011;17683;53.360;9.736;2023-10-09T01:03:25;5.72;;;1.80;;
30647;SDS011;17683;53.360;9.736;2023-10-09T01:05:56;2.60;;;1.67;;
30647;SDS011;17683;53.360;9.736;2023-10-09T01:08:34;6.32;;;2.17;;
30647;SDS011;17683;53.360;9.736;2023-10-09T01:11:06;5.72;;;1.98;;
30647;SDS011;17683;53.360;9.736;2023-10-09T01:13:39;4.25;;;1.85;;
30647;SDS011;17683;53.360;9.736;2023-10-09T01:16:18;5.78;;;1.80;;
30647;SDS011;17683;53.360;9.736;2023-10-09T01:21:19;3.80;;;1.65;;
30647;SDS011;17683;53.360;9.736;2023-10-09T01:23:56;4.20;;;1.98;;
30647;SDS011;17683;53.360;9.736;2023-10-09T01:29:04;5.82;;;1.85;;
30647;SDS011;17683;53.360;9.736;2023-10-09T01:31:35;11.30;;;2.40;;
30647;SDS011;17683;53.360;9.736;2023-10-09T01:34:09;4.07;;;1.50;;
30647;SDS011;17683;53.360;9.736;2023-10-09T01:36:41;5.93;;;1.95;;
30647;SDS011;17683;53.360;9.736;2023-10-09T01:39:06;4.85;;;1.45;;
30647;SDS011;17683;53.360;9.736;2023-10-09T01:42:08;5.63;;;1.85;;
30647;SDS011;17683;53.360;9.736;2023-10-09T01:44:35;4.68;;;1.83;;
30647;SDS011;17683;53.360;9.736;2023-10-09T01:47:08;9.13;;;2.05;;
30647;SDS011;17683;53.360;9.736;2023-10-09T01:49:38;10.48;;;2.47;;
30647;SDS011;17683;53.360;9.736;2023-10-09T01:52:11;4.60;;;1.77;;
30647;SDS011;17683;53.360;9.736;2023-10-09T01:54:46;4.63;;;1.90;;
30647;SDS011;17683;53.360;9.736;2023-10-09T01:57:17;9.13;;;2.10;;
30647;SDS011;17683;53.360;9.736;2023-10-09T01:59:50;4.05;;;2.47;;
30647;SDS011;17683;53.360;9.736;2023-10-09T02:02:20;3.90;;;2.50;;
30647;SDS011;17683;53.360;9.736;2023-10-09T02:04:58;6.47;;;1.90;;
30647;SDS011;17683;53.360;9.736;2023-10-09T02:07:36;3.92;;;1.98;;
30647;SDS011;17683;53.360;9.736;2023-10-09T02:10:08;8.13;;;2.80;;
30647;SDS011;17683;53.360;9.736;2023-10-09T02:12:50;5.00;;;1.80;;
30647;SDS011;17683;53.360;9.736;2023-10-09T02:15:30;7.55;;;2.42;;
30647;SDS011;17683;53.360;9.736;2023-10-09T02:18:09;8.00;;;2.13;;
30647;SDS011;17683;53.360;9.736;2023-10-09T02:23:30;8.15;;;2.35;;
30647;SDS011;17683;53.360;9.736;2023-10-09T02:26:14;6.85;;;2.13;;
30647;SDS011;17683;53.360;9.736;2023-10-09T02:28:54;5.50;;;1.90;;
30647;SDS011;17683;53.360;9.736;2023-10-09T02:31:24;3.50;;;1.83;;
30647;SDS011;17683;53.360;9.736;2023-10-09T02:33:52;3.85;;;1.95;;
30647;SDS011;17683;53.360;9.736;2023-10-09T02:36:20;8.40;;;2.28;;
30647;SDS011;17683;53.360;9.736;2023-10-09T02:38:47;10.15;;;2.78;;
30647;SDS011;17683;53.360;9.736;2023-10-09T02:41:14;5.32;;;1.80;;
30647;SDS011;17683;53.360;9.736;2023-10-09T02:43:40;6.70;;;2.00;;
30647;SDS011;17683;53.360;9.736;2023-10-09T02:46:13;5.25;;;1.65;;
30647;SDS011;17683;53.360;9.736;2023-10-09T02:48:49;6.40;;;2.25;;
30647;SDS011;17683;53.360;9.736;2023-10-09T02:51:19;5.45;;;2.15;;
30647;SDS011;17683;53.360;9.736;2023-10-09T02:54:01;5.85;;;2.33;;
30647;SDS011;17683;53.360;9.736;2023-10-09T02:56:53;8.38;;;2.70;;
30647;SDS011;17683;53.360;9.736;2023-10-09T02:59:31;4.95;;;2.20;;
30647;SDS011;17683;53.360;9.736;2023-10-09T03:01:57;5.82;;;2.10;;
30647;SDS011;17683;53.360;9.736;2023-10-09T03:04:27;6.30;;;2.25;;
30647;SDS011;17683;53.360;9.736;2023-10-09T03:06:59;5.25;;;2.05;;
30647;SDS011;17683;53.360;9.736;2023-10-09T03:09:26;3.55;;;2.42;;
30647;SDS011;17683;53.360;9.736;2023-10-09T03:11:53;5.22;;;2.40;;
30647;SDS011;17683;53.360;9.736;2023-10-09T03:14:25;7.05;;;2.17;;
30647;SDS011;17683;53.360;9.736;2023-10-09T03:16:55;6.82;;;2.72;;
30647;SDS011;17683;53.360;9.736;2023-10-09T03:19:21;9.45;;;2.53;;
30647;SDS011;17683;53.360;9.736;2023-10-09T03:21:47;3.88;;;1.90;;
30647;SDS011;17683;53.360;9.736;2023-10-09T03:24:13;7.47;;;2.30;;
30647;SDS011;17683;53.360;9.736;2023-10-09T03:26:41;6.22;;;2.55;;
30647;SDS011;17683;53.360;9.736;2023-10-09T03:29:10;8.23;;;2.50;;
30647;SDS011;17683;53.360;9.736;2023-10-09T03:31:38;3.58;;;2.00;;
30647;SDS011;17683;53.360;9.736;2023-10-09T03:34:04;5.47;;;3.10;;
30647;SDS011;17683;53.360;9.736;2023-10-09T03:36:31;9.00;;;3.05;;
30647;SDS011;17683;53.360;9.736;2023-10-09T03:39:04;6.35;;;2.00;;
30647;SDS011;17683;53.360;9.736;2023-10-09T03:41:49;7.90;;;2.70;;
30647;SDS011;17683;53.360;9.736;2023-10-09T03:44:16;7.60;;;2.50;;
30647;SDS011;17683;53.360;9.736;2023-10-09T03:46:43;5.07;;;2.05;;
30647;SDS011;17683;53.360;9.736;2023-10-09T03:49:10;5.22;;;2.50;;
30647;SDS011;17683;53.360;9.736;2023-10-09T03:51:38;6.18;;;2.60;;
30647;SDS011;17683;53.360;9.736;2023-10-09T03:54:04;7.82;;;2.47;;
30647;SDS011;17683;53.360;9.736;2023-10-09T03:56:33;6.88;;;3.45;;
30647;SDS011;17683;53.360;9.736;2023-10-09T03:58:59;5.45;;;3.20;;
30647;SDS011;17683;53.360;9.736;2023-10-09T04:01:27;7.45;;;3.10;;
30647;SDS011;17683;53.360;9.736;2023-10-09T04:03:53;6.28;;;3.15;;
30647;SDS011;17683;53.360;9.736;2023-10-09T04:06:29;11.80;;;3.80;;
30647;SDS011;17683;53.360;9.736;2023-10-09T04:08:57;8.38;;;3.67;;
30647;SDS011;17683;53.360;9.736;2023-10-09T04:11:26;6.65;;;4.10;;
30647;SDS011;17683;53.360;9.736;2023-10-09T04:13:52;7.13;;;3.65;;
30647;SDS011;17683;53.360;9.736;2023-10-09T04:16:21;4.65;;;3.40;;
30647;SDS011;17683;53.360;9.736;2023-10-09T04:18:56;8.65;;;3.90;;
30647;SDS011;17683;53.360;9.736;2023-10-09T04:21:22;7.18;;;3.35;;
30647;SDS011;17683;53.360;9.736;2023-10-09T04:24:05;8.07;;;3.05;;
30647;SDS011;17683;53.360;9.736;2023-10-09T04:26:50;7.72;;;3.35;;
30647;SDS011;17683;53.360;9.736;2023-10-09T04:29:22;8.15;;;3.47;;
30647;SDS011;17683;53.360;9.736;2023-10-09T04:31:54;8.55;;;4.35;;
30647;SDS011;17683;53.360;9.736;2023-10-09T04:34:25;5.90;;;3.08;;
30647;SDS011;17683;53.360;9.736;2023-10-09T04:36:56;7.43;;;3.22;;
30647;SDS011;17683;53.360;9.736;2023-10-09T04:39:26;6.93;;;4.18;;
30647;SDS011;17683;53.360;9.736;2023-10-09T04:41:55;6.55;;;3.28;;
30647;SDS011;17683;53.360;9.736;2023-10-09T04:44:41;7.35;;;3.28;;
30647;SDS011;17683;53.360;9.736;2023-10-09T04:47:28;5.82;;;3.50;;
30647;SDS011;17683;53.360;9.736;2023-10-09T04:50:07;6.53;;;3.13;;
30647;SDS011;17683;53.360;9.736;2023-10-09T04:53:00;11.93;;;3.88;;
30647;SDS011;17683;53.360;9.736;2023-10-09T04:55:46;6.90;;;3.45;;
30647;SDS011;17683;53.360;9.736;2023-10-09T04:58:23;9.63;;;3.05;;
30647;SDS011;17683;53.360;9.736;2023-10-09T05:00:53;6.53;;;3.20;;
30647;SDS011;17683;53.360;9.736;2023-10-09T05:03:25;6.85;;;2.67;;
30647;SDS011;17683;53.360;9.736;2023-10-09T05:05:55;5.03;;;2.88;;
30647;SDS011;17683;53.360;9.736;2023-10-09T05:08:25;6.57;;;3.22;;
30647;SDS011;17683;53.360;9.736;2023-10-09T05:16:08;5.22;;;2.58;;
30647;SDS011;17683;53.360;9.736;2023-10-09T05:18:46;3.90;;;2.35;;
30647;SDS011;17683;53.360;9.736;2023-10-09T05:23:57;6.43;;;2.50;;
30647;SDS011;17683;53.360;9.736;2023-10-09T05:26:38;11.38;;;2.92;;
30647;SDS011;17683;53.360;9.736;2023-10-09T05:29:15;5.18;;;2.47;;
30647;SDS011;17683;53.360;9.736;2023-10-09T05:31:47;5.30;;;2.60;;
30647;SDS011;17683;53.360;9.736;2023-10-09T05:34:45;6.38;;;2.85;;
30647;SDS011;17683;53.360;9.736;2023-10-09T05:37:26;5.22;;;2.65;;
30647;SDS011;17683;53.360;9.736;2023-10-09T05:40:02;6.60;;;2.53;;
30647;SDS011;17683;53.360;9.736;2023-10-09T05:42:41;8.10;;;2.42;;
30647;SDS011;17683;53.360;9.736;2023-10-09T05:45:11;17.38;;;3.85;;
30647;SDS011;17683;53.360;9.736;2023-10-09T05:47:57;4.40;;;2.58;;
30647;SDS011;17683;53.360;9.736;2023-10-09T05:50:30;8.68;;;2.78;;
30647;SDS011;17683;53.360;9.736;2023-10-09T05:53:14;6.32;;;2.65;;
30647;SDS011;17683;53.360;9.736;2023-10-09T05:56:03;12.40;;;3.05;;
30647;SDS011;17683;53.360;9.736;2023-10-09T05:58:47;3.67;;;2.30;;
30647;SDS011;17683;53.360;9.736;2023-10-09T06:01:28;10.35;;;3.15;;
30647;SDS011;17683;53.360;9.736;2023-10-09T06:04:13;8.05;;;2.63;;
30647;SDS011;17683;53.360;9.736;2023-10-09T06:06:42;7.38;;;2.78;;
30647;SDS011;17683;53.360;9.736;2023-10-09T06:09:10;5.55;;;3.03;;
30647;SDS011;17683;53.360;9.736;2023-10-09T06:11:43;6.82;;;2.95;;
30647;SDS011;17683;53.360;9.736;2023-10-09T06:14:20;5.00;;;2.88;;
30647;SDS011;17683;53.360;9.736;2023-10-09T06:16:55;5.70;;;3.25;;
30647;SDS011;17683;53.360;9.736;2023-10-09T06:19:23;6.32;;;3.33;;
30647;SDS011;17683;53.360;9.736;2023-10-09T06:22:05;4.00;;;2.80;;
30647;SDS011;17683;53.360;9.736;2023-10-09T06:24:37;5.78;;;3.03;;
30647;SDS011;17683;53.360;9.736;2023-10-09T06:27:10;9.52;;;3.65;;
30647;SDS011;17683;53.360;9.736;2023-10-09T06:29:38;4.40;;;3.60;;
30647;SDS011;17683;53.360;9.736;2023-10-09T06:32:13;6.60;;;2.88;;
30647;SDS011;17683;53.360;9.736;2023-10-09T06:37:17;6.47;;;2.90;;
30647;SDS011;17683;53.360;9.736;2023-10-09T06:39:53;7.00;;;3.05;;
30647;SDS011;17683;53.360;9.736;2023-10-09T06:42:20;6.85;;;3.65;;
30647;SDS011;17683;53.360;9.736;2023-10-09T06:45:08;8.90;;;3.30;;
30647;SDS011;17683;53.360;9.736;2023-10-09T06:47:48;4.88;;;3.55;;
30647;SDS011;17683;53.360;9.736;2023-10-09T06:50:24;4.43;;;3.40;;
30647;SDS011;17683;53.360;9.736;2023-10-09T06:52:50;6.88;;;3.47;;
30647;SDS011;17683;53.360;9.736;2023-10-09T06:55:37;6.15;;;3.03;;
30647;SDS011;17683;53.360;9.736;2023-10-09T06:58:19;5.43;;;3.65;;
30647;SDS011;17683;53.360;9.736;2023-10-09T07:00:51;5.75;;;3.15;;
30647;SDS011;17683;53.360;9.736;2023-10-09T07:03:27;7.97;;;3.20;;
30647;SDS011;17683;53.360;9.736;2023-10-09T07:06:10;4.45;;;3.17;;
30647;SDS011;17683;53.360;9.736;2023-10-09T07:08:55;12.00;;;3.75;;
30647;SDS011;17683;53.360;9.736;2023-10-09T07:11:34;7.50;;;3.65;;
30647;SDS011;17683;53.360;9.736;2023-10-09T07:16:35;7.13;;;3.28;;
30647;SDS011;17683;53.360;9.736;2023-10-09T07:19:06;7.40;;;3.65;;
30647;SDS011;17683;53.360;9.736;2023-10-09T07:21:37;5.78;;;3.70;;
30647;SDS011;17683;53.360;9.736;2023-10-09T07:24:04;8.90;;;3.00;;
30647;SDS011;17683;53.360;9.736;2023-10-09T07:26:42;5.25;;;3.22;;
30647;SDS011;17683;53.360;9.736;2023-10-09T07:29:18;6.65;;;3.50;;
30647;SDS011;17683;53.360;9.736;2023-10-09T07:31:48;6.07;;;3.33;;
30647;SDS011;17683;53.360;9.736;2023-10-09T07:34:22;4.65;;;3.40;;
30647;SDS011;17683;53.360;9.736;2023-10-09T07:37:17;3.97;;;3.10;;
30647;SDS011;17683;53.360;9.736;2023-10-09T07:39:58;4.35;;;3.03;;
30647;SDS011;17683;53.360;9.736;2023-10-09T07:42:32;4.88;;;2.95;;
30647;SDS011;17683;53.360;9.736;2023-10-09T07:45:07;5.35;;;3.30;;
30647;SDS011;17683;53.360;9.736;2023-10-09T07:47:56;4.60;;;3.13;;
30647;SDS011;17683;53.360;9.736;2023-10-09T07:50:25;3.97;;;2.92;;
30647;SDS011;17683;53.360;9.736;2023-10-09T07:53:06;4.78;;;2.92;;
30647;SDS011;17683;53.360;9.736;2023-10-09T07:55:51;3.47;;;2.78;;
30647;SDS011;17683;53.360;9.736;2023-10-09T07:58:26;5.40;;;3.33;;
30647;SDS011;17683;53.360;9.736;2023-10-09T08:00:54;4.27;;;2.87;;
30647;SDS011;17683;53.360;9.736;2023-10-09T08:03:24;4.88;;;3.05;;
30647;SDS011;17683;53.360;9.736;2023-10-09T08:05:50;3.70;;;3.30;;
30647;SDS011;17683;53.360;9.736;2023-10-09T08:08:19;5.13;;;3.25;;
30647;SDS011;17683;53.360;9.736;2023-10-09T08:10:54;3.95;;;3.15;;
30647;SDS011;17683;53.360;9.736;2023-10-09T08:13:38;4.55;;;3.45;;
30647;SDS011;17683;53.360;9.736;2023-10-09T08:16:22;4.57;;;3.10;;
30647;SDS011;17683;53.360;9.736;2023-10-09T08:19:01;4.35;;;2.88;;
30647;SDS011;17683;53.360;9.736;2023-10-09T08:24:31;4.45;;;2.80;;
30647;SDS011;17683;53.360;9.736;2023-10-09T08:27:06;3.28;;;2.67;;
30647;SDS011;17683;53.360;9.736;2023-10-09T08:29:52;3.97;;;2.88;;
30647;SDS011;17683;53.360;9.736;2023-10-09T08:32:37;3.50;;;2.83;;
30647;SDS011;17683;53.360;9.736;2023-10-09T08:35:04;3.17;;;2.45;;
30647;SDS011;17683;53.360;9.736;2023-10-09T08:37:50;5.00;;;3.00;;
30647;SDS011;17683;53.360;9.736;2023-10-09T08:40:16;6.72;;;3.00;;
30647;SDS011;17683;53.360;9.736;2023-10-09T08:42:47;3.65;;;2.75;;
30647;SDS011;17683;53.360;9.736;2023-10-09T08:45:22;2.63;;;2.20;;
30647;SDS011;17683;53.360;9.736;2023-10-09T08:47:50;3.42;;;2.45;;
30647;SDS011;17683;53.360;9.736;2023-10-09T08:50:19;2.70;;;2.50;;
30647;SDS011;17683;53.360;9.736;2023-10-09T08:52:46;2.35;;;2.15;;
30647;SDS011;17683;53.360;9.736;2023-10-09T08:55:16;4.50;;;2.45;;
30647;SDS011;17683;53.360;9.736;2023-10-09T08:57:42;2.60;;;2.40;;
30647;SDS011;17683;53.360;9.736;2023-10-09T09:00:18;3.83;;;2.50;;
30647;SDS011;17683;53.360;9.736;2023-10-09T09:02:49;2.60;;;2.17;;
30647;SDS011;17683;53.360;9.736;2023-10-09T09:05:18;3.85;;;3.13;;
30647;SDS011;17683;53.360;9.736;2023-10-09T09:07:49;2.83;;;2.50;;
30647;SDS011;17683;53.360;9.736;2023-10-09T09:10:22;2.85;;;2.50;;
30647;SDS011;17683;53.360;9.736;2023-10-09T09:13:00;4.07;;;2.70;;
30647;SDS011;17683;53.360;9.736;2023-10-09T09:15:29;2.50;;;2.30;;
30647;SDS011;17683;53.360;9.736;2023-10-09T09:18:05;2.67;;;2.30;;
30647;SDS011;17683;53.360;9.736;2023-10-09T09:20:31;3.85;;;2.80;;
30647;SDS011;17683;53.360;9.736;2023-10-09T09:23:01;3.13;;;2.78;;
30647;SDS011;17683;53.360;9.736;2023-10-09T09:25:42;3.53;;;2.65;;
30647;SDS011;17683;53.360;9.736;2023-10-09T09:28:10;3.17;;;2.50;;
30647;SDS011;17683;53.360;9.736;2023-10-09T09:30:45;2.25;;;2.05;;
30647;SDS011;17683;53.360;9.736;2023-10-09T09:33:19;2.60;;;2.40;;
30647;SDS011;17683;53.360;9.736;2023-10-09T09:36:10;3.30;;;3.00;;
30647;SDS011;17683;53.360;9.736;2023-10-09T09:38:38;2.55;;;2.35;;
30647;SDS011;17683;53.360;9.736;2023-10-09T09:41:12;3.42;;;2.80;;
30647;SDS011;17683;53.360;9.736;2023-10-09T09:43:58;3.15;;;2.85;;
30647;SDS011;17683;53.360;9.736;2023-10-09T09:46:33;4.38;;;3.60;;
30647;SDS011;17683;53.360;9.736;2023-10-09T09:49:03;3.80;;;3.20;;
30647;SDS011;17683;53.360;9.736;2023-10-09T09:51:44;3.55;;;3.25;;
30647;SDS011;17683;53.360;9.736;2023-10-09T09:54:15;3.53;;;2.80;;
30647;SDS011;17683;53.360;9.736;2023-10-09T09:56:44;4.20;;;3.30;;
30647;SDS011;17683;53.360;9.736;2023-10-09T09:59:17;4.10;;;3.72;;
30647;SDS011;17683;53.360;9.736;2023-10-09T10:01:52;4.50;;;3.60;;
30647;SDS011;17683;53.360;9.736;2023-10-09T10:04:26;4.57;;;4.10;;
30647;SDS011;17683;53.360;9.736;2023-10-09T10:07:00;5.53;;;3.25;;
30647;SDS011;17683;53.360;9.736;2023-10-09T10:09:37;4.18;;;3.35;;
30647;SDS011;17683;53.360;9.736;2023-10-09T10:12:07;5.75;;;3.75;;
30647;SDS011;17683;53.360;9.736;2023-10-09T10:17:24;4.95;;;3.30;;
30647;SDS011;17683;53.360;9.736;2023-10-09T10:20:05;4.88;;;3.58;;
30647;SDS011;17683;53.360;9.736;2023-10-09T10:22:40;7.07;;;5.35;;
30647;SDS011;17683;53.360;9.736;2023-10-09T10:25:31;6.47;;;4.55;;
30647;SDS011;17683;53.360;9.736;2023-10-09T10:28:16;8.10;;;6.05;;
30647;SDS011;17683;53.360;9.736;2023-10-09T10:31:02;9.63;;;4.13;;
30647;SDS011;17683;53.360;9.736;2023-10-09T10:36:18;8.50;;;5.15;;
30647;SDS011;17683;53.360;9.736;2023-10-09T10:38:58;5.95;;;5.25;;
30647;SDS011;17683;53.360;9.736;2023-10-09T10:41:35;8.68;;;6.38;;
30647;SDS011;17683;53.360;9.736;2023-10-09T10:44:13;5.68;;;4.78;;
30647;SDS011;17683;53.360;9.736;2023-10-09T10:46:58;10.18;;;5.35;;
30647;SDS011;17683;53.360;9.736;2023-10-09T10:49:23;8.48;;;5.32;;
30647;SDS011;17683;53.360;9.736;2023-10-09T10:51:51;6.35;;;5.63;;
30647;SDS011;17683;53.360;9.736;2023-10-09T10:54:27;6.35;;;5.03;;
30647;SDS011;17683;53.360;9.736;2023-10-09T10:56:58;7.60;;;5.65;;
30647;SDS011;17683;53.360;9.736;2023-10-09T10:59:31;6.97;;;5.63;;
30647;SDS011;17683;53.360;9.736;2023-10-09T11:02:09;9.02;;;6.43;;
30647;SDS011;17683;53.360;9.736;2023-10-09T11:04:35;8.07;;;6.28;;
30647;SDS011;17683;53.360;9.736;2023-10-09T11:07:02;9.95;;;7.07;;
30647;SDS011;17683;53.360;9.736;2023-10-09T11:09:55;8.32;;;7.20;;
30647;SDS011;17683;53.360;9.736;2023-10-09T11:12:26;10.68;;;6.93;;
30647;SDS011;17683;53.360;9.736;2023-10-09T11:15:03;8.18;;;6.70;;
30647;SDS011;17683;53.360;9.736;2023-10-09T11:17:36;8.35;;;7.32;;
30647;SDS011;17683;53.360;9.736;2023-10-09T11:20:04;8.05;;;6.63;;
30647;SDS011;17683;53.360;9.736;2023-10-09T11:22:50;7.55;;;6.63;;
30647;SDS011;17683;53.360;9.736;2023-10-09T11:25:35;10.80;;;7.80;;
30647;SDS011;17683;53.360;9.736;2023-10-09T11:28:18;6.93;;;6.22;;
30647;SDS011;17683;53.360;9.736;2023-10-09T11:31:14;23.30;;;11.25;;
30647;SDS011;17683;53.360;9.736;2023-10-09T11:36:08;14.52;;;10.48;;
30647;SDS011;17683;53.360;9.736;2023-10-09T11:38:37;14.27;;;11.23;;
30647;SDS011;17683;53.360;9.736;2023-10-09T11:41:13;11.55;;;9.00;;
30647;SDS011;17683;53.360;9.736;2023-10-09T11:43:52;15.52;;;12.13;;
30647;SDS011;17683;53.360;9.736;2023-10-09T11:46:23;10.38;;;8.88;;
30647;SDS011;17683;53.360;9.736;2023-10-09T11:49:13;12.23;;;9.65;;
30647;SDS011;17683;53.360;9.736;2023-10-09T11:51:51;12.15;;;9.02;;
30647;SDS011;17683;53.360;9.736;2023-10-09T11:54:49;13.35;;;9.50;;
30647;SDS011;17683;53.360;9.736;2023-10-09T11:57:14;12.32;;;9.80;;
30647;SDS011;17683;53.360;9.736;2023-10-09T11:59:42;19.60;;;9.32;;
30647;SDS011;17683;53.360;9.736;2023-10-09T12:02:08;10.13;;;8.30;;
30647;SDS011;17683;53.360;9.736;2023-10-09T12:04:38;11.82;;;9.88;;
30647;SDS011;17683;53.360;9.736;2023-10-09T12:07:10;17.65;;;11.30;;
30647;SDS011;17683;53.360;9.736;2023-10-09T12:09:36;15.25;;;11.98;;
30647;SDS011;17683;53.360;9.736;2023-10-09T12:12:05;15.52;;;10.13;;
30647;SDS011;17683;53.360;9.736;2023-10-09T12:14:34;14.38;;;10.13;;
30647;SDS011;17683;53.360;9.736;2023-10-09T12:17:07;11.55;;;8.70;;
30647;SDS011;17683;53.360;9.736;2023-10-09T12:19:33;12.05;;;9.57;;
30647;SDS011;17683;53.360;9.736;2023-10-09T12:22:00;12.77;;;9.27;;
30647;SDS011;17683;53.360;9.736;2023-10-09T12:24:29;13.93;;;9.55;;
30647;SDS011;17683;53.360;9.736;2023-10-09T12:26:55;13.43;;;8.80;;
30647;SDS011;17683;53.360;9.736;2023-10-09T12:29:21;13.48;;;9.25;;
30647;SDS011;17683;53.360;9.736;2023-10-09T12:31:48;12.18;;;9.10;;
30647;SDS011;17683;53.360;9.736;2023-10-09T12:34:23;12.43;;;8.43;;
30647;SDS011;17683;53.360;9.736;2023-10-09T12:36:54;13.32;;;8.95;;
30647;SDS011;17683;53.360;9.736;2023-10-09T12:39:23;11.27;;;8.90;;
30647;SDS011;17683;53.360;9.736;2023-10-09T12:41:49;12.10;;;9.50;;
30647;SDS011;17683;53.360;9.736;2023-10-09T12:44:19;12.70;;;8.77;;
30647;SDS011;17683;53.360;9.736;2023-10-09T12:46:45;14.95;;;8.65;;
30647;SDS011;17683;53.360;9.736;2023-10-09T12:49:20;12.15;;;7.20;;
30647;SDS011;17683;53.360;9.736;2023-10-09T12:51:53;10.40;;;7.53;;
30647;SDS011;17683;53.360;9.736;2023-10-09T12:54:22;9.32;;;6.38;;
30647;SDS011;17683;53.360;9.736;2023-10-09T12:56:52;10.38;;;7.22;;
30647;SDS011;17683;53.360;9.736;2023-10-09T12:59:18;7.97;;;5.55;;
30647;SDS011;17683;53.360;9.736;2023-10-09T13:01:45;7.45;;;5.40;;
30647;SDS011;17683;53.360;9.736;2023-10-09T13:04:14;9.50;;;5.50;;
30647;SDS011;17683;53.360;9.736;2023-10-09T13:06:41;8.13;;;4.35;;
30647;SDS011;17683;53.360;9.736;2023-10-09T13:09:11;8.35;;;5.47;;
30647;SDS011;17683;53.360;9.736;2023-10-09T13:11:40;13.50;;;5.65;;
30647;SDS011;17683;53.360;9.736;2023-10-09T13:14:07;8.32;;;4.82;;
30647;SDS011;17683;53.360;9.736;2023-10-09T13:16:46;10.80;;;5.43;;
30647;SDS011;17683;53.360;9.736;2023-10-09T13:19:15;8.90;;;4.60;;
30647;SDS011;17683;53.360;9.736;2023-10-09T13:21:43;8.60;;;4.30;;
30647;SDS011;17683;53.360;9.736;2023-10-09T13:24:09;9.55;;;4.95;;
30647;SDS011;17683;53.360;9.736;2023-10-09T13:26:40;14.82;;;5.00;;
30647;SDS011;17683;53.360;9.736;2023-10-09T13:29:16;8.60;;;3.80;;
30647;SDS011;17683;53.360;9.736;2023-10-09T13:31:47;6.68;;;4.00;;
30647;SDS011;17683;53.360;9.736;2023-10-09T13:34:16;8.93;;;4.05;;
30647;SDS011;17683;53.360;9.736;2023-10-09T13:36:42;11.27;;;4.28;;
30647;SDS011;17683;53.360;9.736;2023-10-09T13:39:23;11.30;;;3.63;;
30647;SDS011;17683;53.360;9.736;2023-10-09T13:46:57;11.55;;;4.78;;
30647;SDS011;17683;53.360;9.736;2023-10-09T13:49:24;10.02;;;4.55;;
30647;SDS011;17683;53.360;9.736;2023-10-09T13:51:55;14.38;;;4.90;;
30647;SDS011;17683;53.360;9.736;2023-10-09T13:54:24;7.32;;;3.80;;
30647;SDS011;17683;53.360;9.736;2023-10-09T13:57:02;9.43;;;4.05;;
30647;SDS011;17683;53.360;9.736;2023-10-09T13:59:33;6.93;;;3.33;;
30647;SDS011;17683;53.360;9.736;2023-10-09T14:02:07;9.48;;;3.78;;
30647;SDS011;17683;53.360;9.736;2023-10-09T14:04:42;8.05;;;3.72;;
30647;SDS011;17683;53.360;9.736;2023-10-09T14:07:08;7.97;;;3.53;;
30647;SDS011;17683;53.360;9.736;2023-10-09T14:09:34;9.13;;;4.30;;
30647;SDS011;17683;53.360;9.736;2023-10-09T14:12:04;7.03;;;3.40;;
30647;SDS011;17683;53.360;9.736;2023-10-09T14:14:42;8.98;;;3.78;;
30647;SDS011;17683;53.360;9.736;2023-10-09T14:17:19;7.88;;;3.60;;
30647;SDS011;17683;53.360;9.736;2023-10-09T14:19:53;8.73;;;3.85;;
30647;SDS011;17683;53.360;9.736;2023-10-09T14:22:26;8.20;;;3.50;;
30647;SDS011;17683;53.360;9.736;2023-10-09T14:24:52;5.53;;;3.28;;
30647;SDS011;17683;53.360;9.736;2023-10-09T14:27:22;5.93;;;3.00;;
30647;SDS011;17683;53.360;9.736;2023-10-09T14:29:55;6.72;;;2.97;;
30647;SDS011;17683;53.360;9.736;2023-10-09T14:32:22;4.28;;;2.35;;
30647;SDS011;17683;53.360;9.736;2023-10-09T14:34:57;6.63;;;2.70;;
30647;SDS011;17683;53.360;9.736;2023-10-09T14:37:37;5.13;;;2.47;;
30647;SDS011;17683;53.360;9.736;2023-10-09T14:40:05;6.00;;;2.03;;
30647;SDS011;17683;53.360;9.736;2023-10-09T14:42:37;6.15;;;2.60;;
30647;SDS011;17683;53.360;9.736;2023-10-09T14:45:09;6.53;;;2.85;;
30647;SDS011;17683;53.360;9.736;2023-10-09T14:47:40;3.85;;;2.25;;
30647;SDS011;17683;53.360;9.736;2023-10-09T14:50:07;5.10;;;1.90;;
30647;SDS011;17683;53.360;9.736;2023-10-09T14:52:38;3.80;;;1.73;;
30647;SDS011;17683;53.360;9.736;2023-10-09T14:55:07;4.53;;;2.03;;
30647;SDS011;17683;53.360;9.736;2023-10-09T14:57:34;5.65;;;2.10;;
30647;SDS011;17683;53.360;9.736;2023-10-09T15:00:00;6.85;;;2.20;;
30647;SDS011;17683;53.360;9.736;2023-10-09T15:02:32;3.35;;;1.67;;
30647;SDS011;17683;53.360;9.736;2023-10-09T15:04:58;5.57;;;1.92;;
30647;SDS011;17683;53.360;9.736;2023-10-09T15:07:24;6.70;;;2.60;;
30647;SDS011;17683;53.360;9.736;2023-10-09T15:09:49;3.83;;;1.80;;
30647;SDS011;17683;53.360;9.736;2023-10-09T15:12:16;6.97;;;2.30;;
30647;SDS011;17683;53.360;9.736;2023-10-09T15:14:41;4.90;;;2.05;;
30647;SDS011;17683;53.360;9.736;2023-10-09T15:17:08;4.22;;;1.73;;
30647;SDS011;17683;53.360;9.736;2023-10-09T15:19:34;1.75;;;1.40;;
30647;SDS011;17683;53.360;9.736;2023-10-09T15:22:00;4.53;;;1.85;;
30647;SDS011;17683;53.360;9.736;2023-10-09T15:24:26;4.15;;;1.90;;
30647;SDS011;17683;53.360;9.736;2023-10-09T15:26:55;4.35;;;1.45;;
30647;SDS011;17683;53.360;9.736;2023-10-09T15:29:23;8.90;;;1.80;;
30647;SDS011;17683;53.360;9.736;2023-10-09T15:32:00;6.63;;;2.03;;
30647;SDS011;17683;53.360;9.736;2023-10-09T15:34:33;3.72;;;1.70;;
30647;SDS011;17683;53.360;9.736;2023-10-09T15:37:01;4.15;;;1.70;;
30647;SDS011;17683;53.360;9.736;2023-10-09T15:39:32;4.40;;;1.50;;
30647;SDS011;17683;53.360;9.736;2023-10-09T15:41:59;3.08;;;1.35;;
30647;SDS011;17683;53.360;9.736;2023-10-09T15:44:25;4.35;;;1.90;;
30647;SDS011;17683;53.360;9.736;2023-10-09T15:46:51;4.13;;;2.00;;
30647;SDS011;17683;53.360;9.736;2023-10-09T15:49:24;4.47;;;1.58;;
30647;SDS011;17683;53.360;9.736;2023-10-09T15:51:52;5.15;;;1.67;;
30647;SDS011;17683;53.360;9.736;2023-10-09T15:54:18;3.80;;;1.92;;
30647;SDS011;17683;53.360;9.736;2023-10-09T15:56:44;5.40;;;2.25;;
30647;SDS011;17683;53.360;9.736;2023-10-09T15:59:10;11.05;;;2.13;;
30647;SDS011;17683;53.360;9.736;2023-10-09T16:01:38;6.18;;;2.65;;